createdAt,value
2023-03-31T00:00:21.497Z,1.67
2023-03-31T00:03:10.309Z,2.70
2023-03-31T00:06:00.321Z,2.63
2023-03-31T00:08:51.892Z,2.15
2023-03-31T00:11:40.077Z,1.90
2023-03-31T00:14:27.874Z,2.20
2023-03-31T00:17:16.304Z,2.85
2023-03-31T00:20:05.952Z,3.00
2023-03-31T00:22:57.570Z,2.13
2023-03-31T00:25:46.491Z,2.30
2023-03-31T00:28:34.284Z,2.38
2023-03-31T00:31:23.011Z,1.63
2023-03-31T00:34:10.966Z,1.90
2023-03-31T00:37:02.523Z,2.47
2023-03-31T00:39:51.862Z,2.42
2023-03-31T00:42:42.211Z,2.40
2023-03-31T00:45:31.407Z,1.65
2023-03-31T00:48:21.118Z,1.90
2023-03-31T00:51:09.280Z,1.73
2023-03-31T00:54:02.126Z,2.13
2023-03-31T00:59:44.143Z,1.60
2023-03-31T01:02:32.150Z,1.95
2023-03-31T01:05:22.426Z,2.13
2023-03-31T01:08:11.924Z,2.22
2023-03-31T01:11:03.041Z,1.67
2023-03-31T01:13:56.217Z,2.10
2023-03-31T01:16:44.013Z,2.10
2023-03-31T01:19:47.421Z,2.03
2023-03-31T01:26:33.214Z,2.13
2023-03-31T01:29:53.449Z,2.40
2023-03-31T01:33:16.387Z,2.42
2023-03-31T01:36:27.915Z,2.10
2023-03-31T01:39:49.320Z,2.08
2023-03-31T01:42:42.317Z,2.70
2023-03-31T01:45:42.668Z,3.35
2023-03-31T01:48:43.561Z,2.70
2023-03-31T01:51:36.618Z,2.63
2023-03-31T01:57:19.781Z,2.20
2023-03-31T02:00:12.381Z,2.50
2023-03-31T02:03:07.935Z,2.28
2023-03-31T02:05:59.894Z,2.08
2023-03-31T02:08:52.501Z,2.30
2023-03-31T02:11:42.960Z,2.50
2023-03-31T02:14:33.918Z,2.33
2023-03-31T02:17:30.543Z,2.20
2023-03-31T02:20:21.156Z,2.50
2023-03-31T02:23:10.704Z,2.40
2023-03-31T02:26:03.902Z,2.70
2023-03-31T02:28:52.087Z,2.30
2023-03-31T02:31:50.341Z,2.85
2023-03-31T02:34:39.848Z,2.63
2023-03-31T02:37:28.679Z,2.30
2023-03-31T02:40:20.448Z,2.28
2023-03-31T02:43:08.087Z,3.72
2023-03-31T02:45:56.269Z,3.33
2023-03-31T02:48:49.301Z,3.45
2023-03-31T02:52:20.754Z,3.05
2023-03-31T02:55:33.221Z,2.42
2023-03-31T02:58:35.786Z,2.90
2023-03-31T03:01:38.592Z,2.33
2023-03-31T03:04:41.742Z,2.80
2023-03-31T03:07:39.361Z,2.40
2023-03-31T03:10:36.866Z,2.47
2023-03-31T03:13:31.413Z,2.35
2023-03-31T03:16:24.560Z,2.25
2023-03-31T03:19:18.858Z,2.15
2023-03-31T03:22:09.224Z,2.17
2023-03-31T03:24:58.642Z,2.85
2023-03-31T03:27:46.369Z,2.17
2023-03-31T03:30:35.388Z,2.05
2023-03-31T03:33:25.086Z,2.60
2023-03-31T03:36:13.616Z,2.30
2023-03-31T03:39:01.582Z,2.15
2023-03-31T03:41:50.916Z,2.53
2023-03-31T03:44:39.058Z,2.70
2023-03-31T03:47:27.261Z,2.50
2023-03-31T03:50:16.442Z,2.63
2023-03-31T03:53:04.587Z,2.08
2023-03-31T03:55:52.458Z,2.08
2023-03-31T03:58:41.843Z,1.70
2023-03-31T04:01:29.764Z,2.00
2023-03-31T04:04:17.877Z,2.15
2023-03-31T04:07:05.995Z,2.03
2023-03-31T04:09:53.509Z,1.70
2023-03-31T04:12:41.577Z,2.13
2023-03-31T04:15:31.161Z,2.08
2023-03-31T04:18:23.174Z,2.25
2023-03-31T04:21:15.203Z,2.00
2023-03-31T04:24:04.842Z,2.22
2023-03-31T04:26:52.498Z,2.35
2023-03-31T04:29:40.590Z,2.30
2023-03-31T04:32:33.067Z,2.00
2023-03-31T04:35:21.836Z,2.08
2023-03-31T04:38:10.154Z,2.10
2023-03-31T04:40:57.999Z,2.10
2023-03-31T04:43:46.229Z,2.30
2023-03-31T04:46:35.434Z,1.90
2023-03-31T04:49:24.891Z,1.90
2023-03-31T04:52:12.803Z,2.22
2023-03-31T04:55:00.636Z,2.20
2023-03-31T04:57:48.579Z,2.28
2023-03-31T05:00:36.851Z,1.80
2023-03-31T05:03:24.721Z,1.80
2023-03-31T05:06:15.692Z,2.10
2023-03-31T05:09:03.661Z,2.45
2023-03-31T05:11:51.650Z,2.10
2023-03-31T05:14:39.849Z,2.20
2023-03-31T05:17:28.014Z,1.83
2023-03-31T05:20:16.000Z,1.92
2023-03-31T05:23:05.522Z,1.90
2023-03-31T05:25:53.266Z,1.85
2023-03-31T05:28:42.090Z,2.20
2023-03-31T05:31:29.780Z,2.15
2023-03-31T05:34:17.648Z,1.90
2023-03-31T05:37:05.827Z,1.92
2023-03-31T05:39:54.884Z,1.95
2023-03-31T05:42:42.941Z,2.63
2023-03-31T05:45:30.706Z,2.25
2023-03-31T05:48:18.625Z,3.00
2023-03-31T05:51:06.938Z,2.38
2023-03-31T05:53:55.041Z,3.30
2023-03-31T05:56:44.258Z,2.33
2023-03-31T05:59:31.988Z,1.80
2023-03-31T06:02:20.065Z,2.85
2023-03-31T06:05:08.333Z,2.03
2023-03-31T06:07:56.330Z,2.03
2023-03-31T06:10:44.262Z,2.40
2023-03-31T06:13:33.568Z,2.63
2023-03-31T06:16:21.749Z,2.80
2023-03-31T06:19:09.994Z,2.67
2023-03-31T06:21:57.764Z,3.17
2023-03-31T06:24:45.690Z,2.35
2023-03-31T06:27:33.788Z,2.90
2023-03-31T06:30:23.304Z,2.90
2023-03-31T06:33:11.845Z,3.03
2023-03-31T06:36:01.796Z,2.97
2023-03-31T06:38:50.605Z,2.53
2023-03-31T06:41:38.876Z,3.00
2023-03-31T06:44:27.072Z,2.97
2023-03-31T06:47:16.414Z,2.67
2023-03-31T06:50:04.209Z,2.45
2023-03-31T06:52:53.031Z,2.67
2023-03-31T06:55:41.024Z,2.78
2023-03-31T06:58:31.386Z,2.28
2023-03-31T07:01:19.581Z,2.80
2023-03-31T07:04:08.868Z,3.28
2023-03-31T07:06:56.873Z,3.00
2023-03-31T07:09:44.922Z,2.40
2023-03-31T07:12:34.850Z,2.60
2023-03-31T07:15:22.787Z,2.60
2023-03-31T07:18:12.603Z,2.60
2023-03-31T07:21:01.794Z,2.55
2023-03-31T07:23:49.622Z,2.90
2023-03-31T07:26:37.635Z,2.30
2023-03-31T07:29:25.756Z,2.40
2023-03-31T07:32:13.797Z,3.80
2023-03-31T07:35:01.839Z,3.45
2023-03-31T07:37:52.224Z,3.55
2023-03-31T07:40:41.696Z,3.33
2023-03-31T07:43:29.514Z,3.90
2023-03-31T07:46:19.554Z,3.97
2023-03-31T07:49:07.865Z,4.07
2023-03-31T07:51:55.649Z,3.55
2023-03-31T07:54:46.476Z,3.97
2023-03-31T07:57:34.571Z,4.82
2023-03-31T08:00:23.025Z,3.42
2023-03-31T08:03:11.052Z,4.55
2023-03-31T08:05:59.266Z,3.95
2023-03-31T08:08:47.458Z,3.67
2023-03-31T08:11:36.888Z,4.50
2023-03-31T08:14:38.066Z,4.97
2023-03-31T08:17:28.913Z,3.92
2023-03-31T08:20:16.894Z,4.00
2023-03-31T08:23:08.946Z,4.50
2023-03-31T08:25:56.860Z,4.63
2023-03-31T08:28:46.303Z,5.10
2023-03-31T08:31:34.294Z,4.88
2023-03-31T08:34:22.183Z,5.15
2023-03-31T08:37:10.542Z,4.15
2023-03-31T08:39:58.884Z,4.45
2023-03-31T08:42:48.640Z,4.88
2023-03-31T08:45:40.896Z,4.30
2023-03-31T08:48:33.429Z,4.60
2023-03-31T08:51:27.988Z,5.03
2023-03-31T08:54:20.243Z,4.85
2023-03-31T08:57:16.747Z,5.28
2023-03-31T09:00:06.971Z,4.18
2023-03-31T09:03:06.506Z,4.28
2023-03-31T09:06:02.861Z,4.45
2023-03-31T09:08:51.217Z,3.88
2023-03-31T09:11:43.900Z,3.88
2023-03-31T09:17:30.372Z,5.03
2023-03-31T09:20:23.876Z,4.47
2023-03-31T09:23:26.126Z,4.32
2023-03-31T09:26:24.941Z,4.50
2023-03-31T09:29:19.280Z,4.22
2023-03-31T09:32:17.139Z,4.13
2023-03-31T09:35:17.538Z,4.18
2023-03-31T09:38:06.701Z,4.55
2023-03-31T09:40:54.841Z,4.05
2023-03-31T09:43:46.129Z,4.00
2023-03-31T09:46:37.433Z,4.03
2023-03-31T09:49:29.267Z,4.70
2023-03-31T09:52:25.021Z,4.32
2023-03-31T09:55:35.922Z,4.15
2023-03-31T09:58:27.136Z,3.97
2023-03-31T10:01:16.716Z,3.63
2023-03-31T10:04:09.373Z,3.60
2023-03-31T10:06:57.928Z,4.10
2023-03-31T10:09:46.014Z,3.50
2023-03-31T10:12:36.265Z,2.75
2023-03-31T10:15:28.934Z,3.35
2023-03-31T10:18:18.447Z,3.13
2023-03-31T10:21:09.830Z,3.75
2023-03-31T10:24:01.427Z,5.25
2023-03-31T10:26:53.325Z,6.63
2023-03-31T10:29:42.595Z,10.57
2023-03-31T10:32:32.698Z,5.60
2023-03-31T10:35:27.861Z,9.73
2023-03-31T10:38:23.245Z,8.13
2023-03-31T10:41:12.652Z,7.97
2023-03-31T10:44:02.264Z,8.98
2023-03-31T10:46:54.382Z,7.72
2023-03-31T10:49:44.071Z,7.18
2023-03-31T10:52:44.031Z,13.68
2023-03-31T10:55:38.230Z,17.10
2023-03-31T10:58:51.876Z,13.88
2023-03-31T11:02:02.185Z,8.98
2023-03-31T11:04:58.222Z,14.07
2023-03-31T11:07:59.301Z,15.65
2023-03-31T11:11:09.314Z,10.90
2023-03-31T11:14:06.930Z,5.80
2023-03-31T11:17:05.405Z,5.20
2023-03-31T11:20:05.659Z,4.00
2023-03-31T11:23:01.893Z,3.92
2023-03-31T11:25:57.838Z,3.53
2023-03-31T11:29:04.600Z,3.67
2023-03-31T11:32:00.424Z,3.50
2023-03-31T11:35:02.661Z,2.42
2023-03-31T11:38:11.641Z,2.97
2023-03-31T11:41:04.448Z,2.67
2023-03-31T11:43:56.621Z,2.58
2023-03-31T11:46:49.870Z,3.50
2023-03-31T11:49:41.482Z,3.70
2023-03-31T11:52:33.823Z,3.67
2023-03-31T11:55:25.432Z,2.70
2023-03-31T11:58:17.980Z,2.42
2023-03-31T12:01:15.332Z,3.17
2023-03-31T12:04:06.638Z,2.15
2023-03-31T12:06:57.081Z,1.90
2023-03-31T12:09:55.142Z,1.90
2023-03-31T12:12:47.036Z,1.92
2023-03-31T12:15:41.487Z,2.53
2023-03-31T12:18:35.975Z,1.77
2023-03-31T12:21:25.651Z,1.52
2023-03-31T12:24:14.883Z,2.05
2023-03-31T12:27:13.343Z,1.60
2023-03-31T12:30:04.147Z,1.30
2023-03-31T12:32:58.288Z,1.77
2023-03-31T12:36:00.404Z,1.65
2023-03-31T12:38:58.998Z,1.60
2023-03-31T12:42:02.436Z,1.30
2023-03-31T12:45:03.106Z,2.05
2023-03-31T12:48:22.388Z,2.97
2023-03-31T12:51:24.610Z,4.07
2023-03-31T12:54:34.856Z,5.67
2023-03-31T12:57:24.272Z,3.47
2023-03-31T13:00:25.475Z,3.85
2023-03-31T13:03:41.492Z,5.05
2023-03-31T13:06:53.780Z,5.53
2023-03-31T13:09:53.012Z,3.72
2023-03-31T13:12:41.623Z,3.40
2023-03-31T13:15:31.541Z,2.85
2023-03-31T13:18:22.759Z,3.17
2023-03-31T13:21:12.297Z,2.53
2023-03-31T13:24:03.208Z,2.70
2023-03-31T13:26:54.084Z,3.03
2023-03-31T13:29:45.536Z,2.27
2023-03-31T13:32:35.128Z,1.60
2023-03-31T13:35:29.818Z,1.52
2023-03-31T13:38:32.291Z,5.82
2023-03-31T13:41:33.889Z,6.27
2023-03-31T13:44:42.585Z,2.20
2023-03-31T13:47:58.551Z,3.92
2023-03-31T13:51:24.918Z,2.97
2023-03-31T13:54:38.386Z,2.90
2023-03-31T13:57:59.275Z,3.13
2023-03-31T14:00:59.156Z,2.92
2023-03-31T14:04:00.473Z,4.57
2023-03-31T14:06:54.508Z,2.30
2023-03-31T14:09:49.662Z,2.70
2023-03-31T14:12:39.351Z,2.20
2023-03-31T14:15:27.233Z,5.50
2023-03-31T14:18:21.493Z,7.97
2023-03-31T14:21:22.487Z,2.60
2023-03-31T14:24:20.031Z,3.90
2023-03-31T14:27:19.703Z,1.90
2023-03-31T14:30:19.161Z,1.60
2023-03-31T14:33:18.090Z,1.63
2023-03-31T14:36:15.853Z,2.38
2023-03-31T14:39:08.130Z,2.13
2023-03-31T14:41:57.352Z,1.67
2023-03-31T14:44:48.251Z,1.80
2023-03-31T14:47:36.704Z,1.80
2023-03-31T14:50:31.271Z,1.90
2023-03-31T14:53:24.134Z,1.90
2023-03-31T14:59:04.555Z,1.70
2023-03-31T15:01:53.316Z,1.88
2023-03-31T15:04:46.452Z,2.28
2023-03-31T15:07:34.242Z,1.90
2023-03-31T15:10:23.411Z,1.85
2023-03-31T15:13:17.565Z,1.85
2023-03-31T15:16:21.160Z,1.92
2023-03-31T15:19:16.266Z,2.00
2023-03-31T15:22:14.075Z,2.30
2023-03-31T15:25:02.165Z,2.50
2023-03-31T15:27:54.715Z,2.20
2023-03-31T15:30:47.658Z,2.63
2023-03-31T15:33:41.498Z,2.65
2023-03-31T15:36:31.637Z,2.50
2023-03-31T15:39:19.766Z,2.67
2023-03-31T15:42:09.494Z,2.00
2023-03-31T15:44:58.584Z,2.47
2023-03-31T15:47:54.303Z,1.90
2023-03-31T15:50:43.211Z,2.17
2023-03-31T15:53:36.937Z,1.70
2023-03-31T15:56:34.847Z,2.00
2023-03-31T15:59:30.413Z,1.98
2023-03-31T16:02:25.898Z,1.30
2023-03-31T16:05:53.542Z,1.58
2023-03-31T16:08:47.744Z,1.50
2023-03-31T16:11:41.358Z,1.40
2023-03-31T16:14:33.652Z,1.40
2023-03-31T16:17:29.126Z,1.63
2023-03-31T16:20:23.026Z,1.67
2023-03-31T16:23:17.659Z,1.60
2023-03-31T16:26:06.388Z,1.30
2023-03-31T16:28:57.996Z,1.40
2023-03-31T16:31:46.276Z,1.30
2023-03-31T16:34:34.545Z,1.63
2023-03-31T16:37:22.905Z,1.65
2023-03-31T16:40:12.626Z,1.90
2023-03-31T16:43:12.388Z,1.90
2023-03-31T16:46:03.301Z,1.70
2023-03-31T16:48:51.896Z,1.90
2023-03-31T16:51:40.077Z,2.03
2023-03-31T16:54:28.475Z,2.10
2023-03-31T16:57:17.789Z,2.90
2023-03-31T17:00:06.184Z,1.50
2023-03-31T17:02:53.967Z,1.92
2023-03-31T17:05:42.624Z,2.45
2023-03-31T17:08:31.292Z,1.90
2023-03-31T17:11:19.508Z,2.30
2023-03-31T17:14:10.373Z,4.85
2023-03-31T17:16:58.373Z,3.75
2023-03-31T17:19:46.513Z,1.38
2023-03-31T17:22:34.400Z,1.35
2023-03-31T17:25:22.569Z,1.40
2023-03-31T17:28:11.099Z,1.40
2023-03-31T17:31:00.763Z,1.52
2023-03-31T17:33:48.726Z,2.10
2023-03-31T17:36:36.803Z,2.88
2023-03-31T17:39:24.728Z,2.33
2023-03-31T17:42:14.166Z,2.40
2023-03-31T17:45:02.340Z,2.60
2023-03-31T17:47:51.931Z,2.50
2023-03-31T17:50:40.592Z,2.78
2023-03-31T17:53:28.721Z,3.50
2023-03-31T17:56:18.012Z,4.45
2023-03-31T17:59:06.420Z,10.77
2023-03-31T18:01:54.487Z,10.98
2023-03-31T18:04:43.968Z,8.48
2023-03-31T18:07:32.265Z,3.35
2023-03-31T18:10:20.341Z,2.38
2023-03-31T18:13:08.399Z,2.33
2023-03-31T18:15:56.193Z,1.80
2023-03-31T18:18:44.135Z,2.67
2023-03-31T18:21:33.697Z,2.10
2023-03-31T18:24:22.575Z,2.00
2023-03-31T18:27:10.739Z,2.28
2023-03-31T18:29:58.657Z,2.17
2023-03-31T18:32:49.597Z,2.40
2023-03-31T18:35:37.922Z,2.25
2023-03-31T18:38:28.103Z,1.90
2023-03-31T18:41:16.270Z,2.15
2023-03-31T18:44:04.297Z,1.92
2023-03-31T18:46:52.465Z,3.45
2023-03-31T18:49:40.474Z,4.05
2023-03-31T18:52:28.399Z,3.15
2023-03-31T18:55:17.765Z,2.50
2023-03-31T18:58:05.782Z,1.85
2023-03-31T19:00:53.975Z,1.90
2023-03-31T19:03:42.505Z,1.50
2023-03-31T19:06:30.162Z,1.45
2023-03-31T19:09:19.207Z,1.65
2023-03-31T19:12:08.815Z,1.52
2023-03-31T19:14:57.112Z,1.80
2023-03-31T19:17:45.152Z,2.20
2023-03-31T19:20:33.226Z,2.45
2023-03-31T19:23:21.519Z,2.47
2023-03-31T19:26:12.161Z,2.13
2023-03-31T19:29:01.343Z,2.25
2023-03-31T19:31:49.438Z,1.90
2023-03-31T19:34:37.667Z,2.13
2023-03-31T19:37:25.675Z,1.58
2023-03-31T19:40:14.418Z,1.42
2023-03-31T19:43:02.454Z,1.50
2023-03-31T19:45:53.185Z,1.45
2023-03-31T19:48:41.277Z,1.38
2023-03-31T19:51:29.247Z,1.33
2023-03-31T19:54:17.563Z,1.30
2023-03-31T19:57:05.529Z,1.40
2023-03-31T19:59:53.231Z,1.40
2023-03-31T20:02:42.663Z,1.50
2023-03-31T20:05:33.332Z,1.30
2023-03-31T20:08:21.145Z,1.30
2023-03-31T20:11:11.400Z,1.20
2023-03-31T20:14:00.639Z,1.23
2023-03-31T20:16:50.475Z,1.40
2023-03-31T20:19:39.794Z,1.27
2023-03-31T20:22:28.233Z,1.85
2023-03-31T20:25:16.495Z,1.60
2023-03-31T20:28:04.564Z,1.75
2023-03-31T20:30:55.764Z,1.50
2023-03-31T20:33:44.649Z,1.55
2023-03-31T20:36:34.274Z,2.15
2023-03-31T20:39:22.559Z,2.17
2023-03-31T20:42:10.927Z,2.25
2023-03-31T20:44:58.781Z,2.30
2023-03-31T20:47:46.755Z,2.80
2023-03-31T20:50:39.356Z,2.67
2023-03-31T20:53:28.876Z,2.90
2023-03-31T20:56:18.321Z,2.40
2023-03-31T20:59:08.070Z,2.65
2023-03-31T21:01:57.098Z,2.17
2023-03-31T21:04:45.028Z,2.97
2023-03-31T21:07:32.992Z,2.90
2023-03-31T21:10:22.366Z,1.95
2023-03-31T21:13:10.766Z,2.08
2023-03-31T21:15:59.809Z,3.53
2023-03-31T21:18:48.431Z,3.50
2023-03-31T21:21:36.323Z,3.88
2023-03-31T21:24:26.516Z,1.92
2023-03-31T21:27:15.622Z,1.95
2023-03-31T21:30:03.844Z,1.50
2023-03-31T21:32:52.789Z,1.20
2023-03-31T21:35:41.193Z,1.23
2023-03-31T21:38:29.809Z,1.17
2023-03-31T21:41:20.774Z,1.52
2023-03-31T21:44:10.319Z,1.40
2023-03-31T21:46:58.375Z,1.73
2023-03-31T21:49:46.112Z,1.48
2023-03-31T21:52:34.153Z,1.38
2023-03-31T21:55:22.606Z,1.90
2023-03-31T21:58:11.303Z,1.85
2023-03-31T22:01:02.071Z,1.52
2023-03-31T22:03:50.431Z,1.10
2023-03-31T22:06:39.251Z,1.58
2023-03-31T22:09:27.620Z,2.58
2023-03-31T22:12:15.560Z,1.73
2023-03-31T22:15:03.676Z,1.65
2023-03-31T22:17:52.866Z,1.92
2023-03-31T22:20:40.889Z,1.50
2023-03-31T22:23:29.034Z,1.13
2023-03-31T22:26:17.125Z,1.42
2023-03-31T22:29:04.806Z,1.38
2023-03-31T22:31:52.915Z,1.52
2023-03-31T22:34:42.168Z,1.60
2023-03-31T22:37:29.961Z,1.33
2023-03-31T22:40:18.144Z,1.10
2023-03-31T22:43:06.126Z,1.05
2023-03-31T22:45:54.654Z,0.90
2023-03-31T22:48:42.910Z,1.00
2023-03-31T22:51:32.269Z,1.00
2023-03-31T22:54:20.061Z,1.55
2023-03-31T22:57:08.329Z,0.90
2023-03-31T22:59:56.300Z,1.83
2023-03-31T23:02:44.014Z,1.55
2023-03-31T23:05:32.313Z,1.25
2023-03-31T23:08:21.641Z,1.50
2023-03-31T23:11:12.529Z,1.20
2023-03-31T23:14:00.287Z,2.00
2023-03-31T23:16:48.232Z,1.40
2023-03-31T23:19:37.803Z,1.92
2023-03-31T23:22:25.973Z,3.00
2023-03-31T23:25:15.165Z,2.15
2023-03-31T23:28:03.246Z,1.77
2023-03-31T23:30:56.675Z,1.67
2023-03-31T23:33:44.700Z,2.45
2023-03-31T23:36:32.547Z,1.83
2023-03-31T23:39:21.489Z,1.77
2023-03-31T23:42:12.544Z,1.90
2023-03-31T23:45:00.509Z,1.50
2023-03-31T23:47:48.523Z,1.48
2023-03-31T23:50:36.502Z,1.60
2023-03-31T23:53:24.413Z,1.67
2023-03-31T23:56:14.267Z,1.98
2023-03-31T23:59:03.927Z,1.25
